Time;durP1;ratioP1;P1;durP2;ratioP2;P2;SDS_P1;SDS_P2;PMS_P1;PMS_P2;Temp;Humidity;BMP_temperature;BMP_pressure;BME280_temperature;BME280_humidity;BME280_pressure;Samples;Min_cycle;Max_cycle;Signal;HPM_P1;HPM_P2
2022/04/19 00:01:00;;;;;;;2.88;0.63;;;;;;;14.89;55.84;101164.25;7385352;19;20432;-66
2022/04/19 00:03:27;;;;;;;6.43;0.70;;;;;;;14.85;55.70;101158.50;7385938;19;20014;-65
2022/04/19 00:05:54;;;;;;;2.20;0.40;;;;;;;14.81;55.64;101157.19;7386137;19;20042;-64
2022/04/19 00:08:21;;;;;;;4.75;0.60;;;;;;;14.78;55.67;101162.00;7386362;19;20044;-66
2022/04/19 00:10:48;;;;;;;3.70;0.50;;;;;;;14.72;56.08;101162.69;7386187;19;20043;-66
2022/04/19 00:13:16;;;;;;;3.20;0.40;;;;;;;14.69;55.95;101153.25;7385851;19;20011;-65
2022/04/19 00:15:45;;;;;;;4.30;0.50;;;;;;;14.63;56.08;101153.94;7390015;19;20007;-64
2022/04/19 00:18:13;;;;;;;3.95;1.60;;;;;;;14.63;56.67;101153.94;7387017;19;20018;-66
2022/04/19 00:20:42;;;;;;;3.92;0.40;;;;;;;14.63;56.51;101143.34;7385798;19;20023;-66
2022/04/19 00:23:13;;;;;;;2.63;0.40;;;;;;;14.64;56.39;101150.28;7386048;19;20003;-66
2022/04/19 00:25:44;;;;;;;3.78;0.43;;;;;;;14.62;56.61;101151.47;7387422;19;20075;-66
2022/04/19 00:28:12;;;;;;;3.88;0.50;;;;;;;14.58;56.97;101145.66;7387746;19;20025;-64
2022/04/19 00:30:40;;;;;;;5.13;0.50;;;;;;;14.56;56.78;101147.69;7385310;19;20015;-65
2022/04/19 00:33:08;;;;;;;3.33;0.50;;;;;;;14.51;56.73;101140.25;7385275;19;20542;-66
2022/04/19 00:35:37;;;;;;;3.60;0.55;;;;;;;14.48;56.97;101145.88;7385329;19;20306;-64
2022/04/19 00:38:05;;;;;;;3.58;0.47;;;;;;;14.46;57.15;101139.94;7384495;19;20011;-64
2022/04/19 00:40:32;;;;;;;2.55;0.50;;;;;;;14.44;58.25;101139.28;7384837;19;20014;-63
2022/04/19 00:43:00;;;;;;;3.63;0.50;;;;;;;14.44;57.35;101141.91;7388298;19;20010;-66
2022/04/19 00:45:27;;;;;;;3.58;0.55;;;;;;;14.43;57.82;101139.44;7388863;19;20007;-64
2022/04/19 00:47:54;;;;;;;3.55;0.60;;;;;;;14.41;57.68;101136.16;7388622;19;20549;-64
2022/04/19 00:50:24;;;;;;;2.30;0.50;;;;;;;14.35;57.60;101139.44;7389304;19;20675;-64
2022/04/19 00:52:52;;;;;;;3.30;0.50;;;;;;;14.32;58.04;101143.25;7384814;19;20018;-66
2022/04/19 00:55:19;;;;;;;4.20;0.60;;;;;;;14.27;58.23;101131.53;7383828;19;20091;-62
2022/04/19 00:57:46;;;;;;;2.33;0.50;;;;;;;14.27;58.19;101137.66;7384020;19;20027;-64
2022/04/19 01:00:14;;;;;;;4.32;0.60;;;;;;;14.27;58.04;101134.19;7381794;19;20032;-65
2022/04/19 01:02:41;;;;;;;2.60;0.40;;;;;;;14.27;58.49;101128.88;7385110;19;20015;-66
2022/04/19 01:05:09;;;;;;;3.30;0.40;;;;;;;14.25;58.42;101131.69;7383973;19;20023;-65
2022/04/19 01:07:38;;;;;;;4.03;0.50;;;;;;;14.24;58.79;101121.25;7384835;19;20024;-66
2022/04/19 01:10:10;;;;;;;2.38;0.40;;;;;;;14.20;58.66;101123.44;7384615;19;20014;-67
2022/04/19 01:15:30;;;;;;;2.50;0.45;;;;;;;14.13;58.87;101120.63;7387894;19;20007;-68
2022/04/19 01:17:59;;;;;;;6.07;2.78;;;;;;;14.13;59.60;101117.16;7383347;19;20019;-64
2022/04/19 01:20:28;;;;;;;3.15;0.50;;;;;;;14.14;59.58;101122.28;7382176;19;20483;-65
2022/04/19 01:22:55;;;;;;;3.53;0.40;;;;;;;14.15;59.12;101120.47;7383424;19;20021;-64
2022/04/19 01:25:22;;;;;;;3.50;0.60;;;;;;;14.12;58.97;101120.78;7384520;19;20493;-63
2022/04/19 01:27:49;;;;;;;4.43;0.40;;;;;;;14.10;59.05;101115.69;7387283;19;20032;-66
2022/04/19 01:30:18;;;;;;;3.63;0.55;;;;;;;14.06;59.60;101110.91;7392494;19;20344;-65
2022/04/19 01:32:45;;;;;;;3.92;0.47;;;;;;;14.06;60.04;101113.53;7391266;19;20018;-66
2022/04/19 01:35:17;;;;;;;5.22;0.40;;;;;;;14.05;59.32;101115.34;7393628;19;20035;-65
2022/04/19 01:37:47;;;;;;;2.10;0.50;;;;;;;14.03;59.59;101113.84;7394711;19;20014;-65
2022/04/19 01:40:18;;;;;;;3.35;0.45;;;;;;;14.00;59.61;101108.91;7392077;19;20080;-65
2022/04/19 01:42:59;;;;;;;1.92;0.40;;;;;;;14.00;59.73;101108.91;7388033;19;20006;-66
2022/04/19 01:45:34;;;;;;;4.22;0.70;;;;;;;14.00;59.66;101104.44;7388739;19;20018;-66
2022/04/19 01:48:02;;;;;;;4.75;0.60;;;;;;;14.00;59.78;101104.44;7387489;19;20039;-66
2022/04/19 01:50:29;;;;;;;4.43;0.60;;;;;;;14.01;59.61;101100.81;7388352;19;20018;-66
2022/04/19 01:53:00;;;;;;;2.60;0.30;;;;;;;13.98;59.39;101103.78;7393229;19;20022;-66
2022/04/19 01:55:27;;;;;;;6.50;0.50;;;;;;;13.93;59.69;101095.53;7393403;19;20031;-66
2022/04/19 01:57:56;;;;;;;4.15;0.47;;;;;;;13.92;60.11;101100.97;7396588;19;20022;-68
2022/04/19 02:00:29;;;;;;;2.55;0.50;;;;;;;13.94;60.23;101096.34;7392331;19;20023;-67
2022/04/19 02:02:57;;;;;;;2.38;1.45;;;;;;;13.93;59.95;101092.88;7390989;19;20062;-66
2022/04/19 02:05:25;;;;;;;3.30;0.40;;;;;;;13.92;60.28;101098.31;7392512;19;20014;-65
2022/04/19 02:07:52;;;;;;;3.72;0.55;;;;;;;13.91;60.18;101097.53;7393318;19;20035;-65
2022/04/19 02:10:20;;;;;;;3.38;0.40;;;;;;;13.90;60.25;101095.88;7391325;19;20018;-69
2022/04/19 02:12:47;;;;;;;2.63;0.35;;;;;;;13.89;60.50;101094.22;7393346;19;20007;-67
2022/04/19 02:15:18;;;;;;;4.15;0.50;;;;;;;13.88;60.41;101097.00;7391690;19;20018;-67
2022/04/19 02:17:48;;;;;;;3.22;0.45;;;;;;;13.86;60.23;101094.56;7392643;19;20047;-67
2022/04/19 02:20:25;;;;;;;2.33;0.35;;;;;;;13.83;60.52;101097.53;7387961;19;20044;-66
2022/04/19 02:22:53;;;;;;;2.95;0.47;;;;;;;13.75;60.53;101089.59;7389992;19;20072;-64
2022/04/19 02:25:24;;;;;;;5.32;0.82;;;;;;;13.71;60.87;101093.59;7391730;19;20243;-65
2022/04/19 02:27:52;;;;;;;4.45;0.52;;;;;;;13.71;61.31;101091.72;7389921;19;20018;-66
2022/04/19 02:30:19;;;;;;;0.82;0.30;;;;;;;13.71;61.10;101088.28;7387854;19;20015;-62
2022/04/19 02:32:48;;;;;;;2.40;0.40;;;;;;;13.69;60.71;101096.38;7389028;19;20011;-68
2022/04/19 02:35:18;;;;;;;3.78;0.30;;;;;;;13.69;60.96;101101.66;7389585;19;20014;-66
2022/04/19 02:37:53;;;;;;;4.40;0.40;;;;;;;13.67;61.14;101100.16;7393062;19;20475;-64
2022/04/19 02:40:22;;;;;;;3.47;0.45;;;;;;;13.69;62.10;101101.66;7388657;19;20031;-65
2022/04/19 02:42:50;;;;;;;3.38;0.35;;;;;;;13.69;62.08;101099.03;7388492;19;20014;-66
2022/04/19 02:45:19;;;;;;;3.53;0.40;;;;;;;13.70;61.23;101103.31;7386808;19;20027;-66
2022/04/19 02:48:04;;;;;;;2.13;0.47;;;;;;;13.68;61.29;101097.38;7392353;19;20343;-65
2022/04/19 02:50:40;;;;;;;1.98;0.30;;;;;;;13.65;61.32;101089.78;7390262;19;20021;-66
2022/04/19 02:53:07;;;;;;;1.52;0.30;;;;;;;13.64;61.61;101092.59;7393192;19;20031;-66
2022/04/19 02:55:34;;;;;;;3.30;0.40;;;;;;;13.61;61.90;101090.28;7388873;19;20401;-65
2022/04/19 02:58:01;;;;;;;2.08;0.40;;;;;;;13.58;61.76;101087.94;7388927;19;20420;-66
2022/04/19 03:00:28;;;;;;;5.25;0.40;;;;;;;13.56;61.70;101092.59;7388790;19;20034;-65
2022/04/19 03:02:55;;;;;;;2.90;0.30;;;;;;;13.49;62.06;101092.41;7386192;19;20011;-65
2022/04/19 03:05:22;;;;;;;3.70;0.60;;;;;;;13.49;62.17;101092.41;7388316;19;20023;-66
2022/04/19 03:07:49;;;;;;;2.92;0.40;;;;;;;13.50;62.07;101087.97;7386347;19;20023;-65
2022/04/19 03:10:16;;;;;;;2.70;0.40;;;;;;;13.51;62.18;101086.97;7390120;19;20476;-64
2022/04/19 03:12:44;;;;;;;4.72;0.40;;;;;;;13.52;61.94;101083.31;7388052;19;20010;-63
2022/04/19 03:15:15;;;;;;;4.40;0.50;;;;;;;13.49;61.99;101086.31;7391556;19;20455;-66
2022/04/19 03:17:43;;;;;;;2.90;0.40;;;;;;;13.48;62.01;101082.00;7387928;19;20015;-67
2022/04/19 03:20:11;;;;;;;2.75;0.40;;;;;;;13.43;62.39;101085.16;7385551;19;20078;-66
2022/04/19 03:28:10;;;;;;;1.98;0.40;;;;;;;13.33;62.76;101089.78;7387178;19;20011;-66
2022/04/19 03:30:38;;;;;;;3.65;0.40;;;;;;;13.31;62.85;101083.81;7385928;19;20101;-67
2022/04/19 03:33:05;;;;;;;5.70;0.40;;;;;;;13.30;62.84;101086.63;7387248;19;20022;-67
2022/04/19 03:35:36;;;;;;;4.50;0.32;;;;;;;13.28;63.08;101089.44;7391894;19;20106;-66
2022/04/19 03:38:08;;;;;;;4.25;0.40;;;;;;;13.25;63.79;101089.78;7389425;19;20328;-65
2022/04/19 03:40:36;;;;;;;2.58;0.70;;;;;;;13.26;63.67;101088.75;7390477;19;20017;-66
2022/04/19 03:43:05;;;;;;;4.40;0.50;;;;;;;13.28;63.34;101086.78;7391554;19;20380;-65
2022/04/19 03:45:32;;;;;;;1.92;0.40;;;;;;;13.31;63.30;101094.38;7387694;19;20395;-63
2022/04/19 03:48:00;;;;;;;2.92;0.40;;;;;;;13.30;63.18;101087.47;7386849;19;20015;-66
2022/04/19 03:50:27;;;;;;;3.80;0.85;;;;;;;13.33;62.84;101091.56;7389291;19;20324;-67
2022/04/19 03:52:54;;;;;;;2.72;0.40;;;;;;;13.36;63.27;101093.91;7390218;19;20026;-66
2022/04/19 03:55:23;;;;;;;2.70;0.40;;;;;;;13.36;62.98;101081.50;7389958;19;20010;-63
2022/04/19 03:57:50;;;;;;;1.48;0.55;;;;;;;13.36;62.89;101086.78;7385979;19;20049;-66
2022/04/19 04:00:17;;;;;;;2.60;0.60;;;;;;;13.37;62.70;101087.59;7388273;19;20010;-65
2022/04/19 04:02:45;;;;;;;3.40;0.47;;;;;;;13.37;63.10;101090.25;7387663;19;20018;-65
2022/04/19 04:05:12;;;;;;;3.80;0.50;;;;;;;13.36;63.03;101088.63;7388364;19;20011;-67
2022/04/19 04:07:39;;;;;;;2.22;0.70;;;;;;;13.34;62.97;101085.31;7389808;19;20034;-66
2022/04/19 04:10:07;;;;;;;3.60;0.60;;;;;;;13.32;63.09;101089.91;7389111;19;20019;-64
2022/04/19 04:12:36;;;;;;;1.50;0.40;;;;;;;13.27;63.27;101093.88;7384329;19;20074;-64
2022/04/19 04:15:03;;;;;;;2.72;0.43;;;;;;;13.24;63.44;101098.69;7389081;19;20015;-64
2022/04/19 04:17:30;;;;;;;4.53;0.50;;;;;;;13.17;63.06;101095.84;7387244;19;20019;-65
2022/04/19 04:19:59;;;;;;;3.72;0.60;;;;;;;13.11;63.42;101093.00;7385741;19;20439;-65
2022/04/19 04:22:27;;;;;;;4.07;0.95;;;;;;;13.10;63.96;101097.47;7384162;19;20029;-66
2022/04/19 04:24:54;;;;;;;2.33;0.30;;;;;;;13.11;63.87;101099.16;7387846;19;20035;-64
2022/04/19 04:27:21;;;;;;;4.85;0.60;;;;;;;13.11;63.73;101103.56;7387693;19;20527;-66
2022/04/19 04:29:48;;;;;;;2.05;0.40;;;;;;;13.08;63.85;101098.63;7388431;19;20015;-65
2022/04/19 04:32:16;;;;;;;3.70;0.50;;;;;;;13.05;63.81;101091.84;7386950;19;20014;-66
2022/04/19 04:34:42;;;;;;;3.33;0.60;;;;;;;13.00;64.15;101094.16;7386203;19;20085;-65
2022/04/19 04:37:09;;;;;;;2.83;0.43;;;;;;;12.97;64.75;101094.47;7387047;19;20006;-64
2022/04/19 04:39:36;;;;;;;3.83;0.50;;;;;;;12.96;64.56;101089.34;7386867;19;20817;-64
2022/04/19 04:42:04;;;;;;;2.17;0.43;;;;;;;12.92;64.77;101095.94;7387708;19;20503;-68
2022/04/19 04:44:31;;;;;;;2.97;0.50;;;;;;;12.91;64.76;101094.28;7385476;19;20011;-66
2022/04/19 04:49:44;;;;;;;3.10;0.98;;;;;;;12.92;65.34;101091.47;7386832;19;20094;-65
2022/04/19 04:52:15;;;;;;;4.05;0.63;;;;;;;12.93;65.33;101092.31;7386398;19;20088;-65
2022/04/19 04:54:51;;;;;;;2.75;0.50;;;;;;;12.91;64.91;101094.28;7386163;19;20019;-64
2022/04/19 04:57:22;;;;;;;3.10;0.60;;;;;;;12.90;64.92;101090.00;7384976;19;20083;-64
2022/04/19 04:59:49;;;;;;;2.63;0.50;;;;;;;12.90;65.05;101096.09;7387022;19;20007;-63
2022/04/19 05:02:18;;;;;;;3.00;0.50;;;;;;;12.92;64.57;101094.13;7381402;19;20445;-64
2022/04/19 05:04:45;;;;;;;3.15;0.50;;;;;;;12.94;65.23;101100.09;7385533;19;20078;-65
2022/04/19 05:07:15;;;;;;;3.50;0.60;;;;;;;12.95;65.15;101096.47;7387221;19;20024;-64
2022/04/19 05:09:42;;;;;;;2.45;0.50;;;;;;;13.00;64.44;101098.63;7387414;19;20014;-66
2022/04/19 05:12:09;;;;;;;3.28;0.40;;;;;;;13.03;64.28;101107.03;7385878;19;20018;-66
2022/04/19 05:14:36;;;;;;;3.97;0.65;;;;;;;13.00;64.20;101104.72;7384897;19;20099;-62
2022/04/19 05:17:04;;;;;;;5.43;0.45;;;;;;;13.02;64.25;101107.19;7385115;19;20042;-67
2022/04/19 05:19:30;;;;;;;5.38;0.70;;;;;;;13.03;65.06;101104.38;7382513;19;20011;-65
2022/04/19 05:21:57;;;;;;;4.55;0.50;;;;;;;13.07;64.33;101108.34;7384602;19;20046;-64
2022/04/19 05:24:24;;;;;;;2.25;0.50;;;;;;;13.09;63.93;101106.38;7384385;19;20137;-64
2022/04/19 05:26:51;;;;;;;2.30;0.40;;;;;;;13.07;63.64;101102.25;7383313;19;20042;-66
2022/04/19 05:29:18;;;;;;;2.20;0.50;;;;;;;13.04;63.44;101105.22;7388384;19;20018;-65
2022/04/19 05:31:45;;;;;;;3.30;0.50;;;;;;;13.01;63.46;101103.72;7382190;19;20060;-66
2022/04/19 05:34:12;;;;;;;1.70;0.50;;;;;;;13.01;64.73;101108.16;7385153;19;20007;-63
2022/04/19 05:36:39;;;;;;;4.13;0.85;;;;;;;13.00;64.07;101095.97;7386207;19;20126;-65
2022/04/19 05:39:05;;;;;;;5.03;0.45;;;;;;;13.00;63.80;101107.38;7385932;19;20022;-64
2022/04/19 05:41:35;;;;;;;4.30;0.60;;;;;;;13.02;63.62;101102.72;7380137;19;20002;-65
2022/04/19 05:44:02;;;;;;;2.67;0.60;;;;;;;13.06;63.30;101106.69;7387067;19;20021;-65
2022/04/19 05:46:30;;;;;;;3.13;0.60;;;;;;;13.11;63.26;101100.91;7386757;19;20015;-67
2022/04/19 05:48:57;;;;;;;2.45;0.43;;;;;;;13.15;63.67;101103.13;7383778;19;20021;-63
2022/04/19 05:51:24;;;;;;;3.17;0.60;;;;;;;13.22;63.09;101111.22;7384201;19;20011;-63
2022/04/19 05:53:51;;;;;;;7.05;0.60;;;;;;;13.26;63.45;101118.66;7383480;19;20326;-66
2022/04/19 05:56:18;;;;;;;5.68;0.60;;;;;;;13.30;63.77;101110.41;7385004;19;20137;-67
2022/04/19 05:58:45;;;;;;;1.75;0.50;;;;;;;13.32;63.34;101108.41;7384578;19;20014;-65
2022/04/19 06:01:11;;;;;;;4.75;0.93;;;;;;;13.35;63.44;101108.94;7385447;19;20015;-65
2022/04/19 06:06:24;;;;;;;3.78;0.77;;;;;;;13.35;62.94;101111.59;7382915;19;20013;-68
2022/04/19 06:08:51;;;;;;;4.53;0.70;;;;;;;13.33;62.99;101105.63;7382640;19;20014;-64
2022/04/19 06:11:18;;;;;;;2.88;0.60;;;;;;;13.31;63.19;101110.22;7387258;19;20238;-65
2022/04/19 06:13:45;;;;;;;3.22;0.90;;;;;;;13.34;63.27;101109.09;7384435;19;20313;-68
2022/04/19 06:16:12;;;;;;;6.25;1.15;;;;;;;13.36;64.11;101112.41;7393024;19;20053;-65
2022/04/19 06:18:39;;;;;;;4.35;1.00;;;;;;;13.37;63.98;101109.59;7390191;19;20467;-64
2022/04/19 06:21:06;;;;;;;4.30;0.90;;;;;;;13.44;63.60;101122.97;7392028;19;20021;-62
2022/04/19 06:23:33;;;;;;;3.33;0.77;;;;;;;13.45;62.55;101122.00;7391010;19;20015;-66
2022/04/19 06:26:00;;;;;;;4.53;0.90;;;;;;;13.50;61.93;101117.88;7391234;19;20082;-67
2022/04/19 06:28:27;;;;;;;3.90;0.63;;;;;;;13.48;61.56;101121.66;7390127;19;20015;-64
2022/04/19 06:30:54;;;;;;;4.65;0.63;;;;;;;13.45;61.61;101120.19;7392471;19;20037;-69
2022/04/19 06:33:21;;;;;;;2.92;0.95;;;;;;;13.45;62.01;101125.47;7390248;19;20111;-65
2022/04/19 06:35:48;;;;;;;4.45;1.00;;;;;;;13.48;62.17;101126.94;7387941;19;20310;-64
2022/04/19 06:38:15;;;;;;;2.88;0.70;;;;;;;13.54;62.12;101128.94;7389131;19;20082;-64
2022/04/19 06:40:42;;;;;;;3.50;0.93;;;;;;;13.65;61.77;101131.25;7393685;19;20309;-63
2022/04/19 06:43:09;;;;;;;4.20;1.00;;;;;;;13.77;61.02;101127.28;7389344;19;20393;-65
2022/04/19 06:45:36;;;;;;;7.28;1.15;;;;;;;13.93;61.20;101132.56;7388745;19;20035;-66
2022/04/19 06:48:05;;;;;;;6.45;1.25;;;;;;;14.14;60.56;101135.50;7390492;19;20018;-67
2022/04/19 06:50:32;;;;;;;4.32;0.80;;;;;;;14.41;59.35;101136.97;7386208;19;20324;-65
2022/04/19 06:52:59;;;;;;;5.93;1.15;;;;;;;14.72;58.16;101138.84;7391347;19;20015;-64
2022/04/19 06:55:26;;;;;;;5.30;1.67;;;;;;;14.82;57.48;101132.34;7387305;19;20016;-63
2022/04/19 06:57:53;;;;;;;3.65;1.58;;;;;;;14.87;57.37;101127.34;7386450;19;20015;-64
2022/04/19 07:00:21;;;;;;;4.18;1.48;;;;;;;14.91;58.08;101130.47;7383363;19;20503;-66
2022/04/19 07:02:48;;;;;;;6.05;1.33;;;;;;;14.96;57.64;101128.97;7381834;19;20027;-63
2022/04/19 07:05:16;;;;;;;7.18;1.60;;;;;;;15.22;58.76;101130.47;7383923;19;20024;-64
2022/04/19 07:07:43;;;;;;;3.97;1.10;;;;;;;15.39;55.93;101126.69;7385721;19;20382;-64
2022/04/19 07:10:11;;;;;;;5.65;1.73;;;;;;;15.43;55.88;101135.13;7383099;19;20007;-64
2022/04/19 07:12:44;;;;;;;5.55;1.60;;;;;;;15.43;56.27;101132.47;7384134;19;20043;-67
2022/04/19 07:15:11;;;;;;;11.00;1.48;;;;;;;15.40;56.37;101136.31;7389176;19;20014;-66
2022/04/19 07:17:39;;;;;;;9.88;2.55;;;;;;;15.22;62.41;101128.66;7391143;19;20014;-67
2022/04/19 07:28:23;;;;;;;5.40;2.40;;;;;;;14.52;60.08;101133.13;7387825;19;20087;-66
2022/04/19 07:30:51;;;;;;;9.20;2.00;;;;;;;14.48;59.91;101137.94;7389429;19;20090;-66
2022/04/19 07:33:17;;;;;;;7.63;2.15;;;;;;;14.36;59.50;101141.94;7386019;19;20013;-67
2022/04/19 07:35:45;;;;;;;6.88;2.17;;;;;;;14.26;59.72;101151.88;7385369;19;20018;-67
2022/04/19 07:38:12;;;;;;;5.53;1.92;;;;;;;14.16;60.21;101147.75;7387879;19;20413;-66
2022/04/19 07:40:39;;;;;;;6.05;2.20;;;;;;;14.13;61.83;101149.72;7391402;19;20019;-66
2022/04/19 07:43:06;;;;;;;12.88;2.55;;;;;;;14.15;60.65;101154.88;7383942;19;20019;-66
2022/04/19 07:45:35;;;;;;;7.72;2.33;;;;;;;14.20;61.07;101155.19;7385117;19;20019;-68
2022/04/19 07:48:04;;;;;;;8.90;2.45;;;;;;;14.26;59.71;101153.69;7386524;19;20021;-67
2022/04/19 07:50:31;;;;;;;6.50;1.52;;;;;;;14.31;59.72;101157.50;7386967;19;20014;-66
2022/04/19 07:52:58;;;;;;;8.82;1.60;;;;;;;14.38;58.99;101145.25;7388332;19;20093;-67
2022/04/19 07:55:25;;;;;;;6.53;2.28;;;;;;;14.43;60.14;101150.03;7385798;19;20013;-66
2022/04/19 07:57:52;;;;;;;6.40;2.13;;;;;;;14.51;58.23;101152.66;7391120;19;20325;-66
2022/04/19 08:00:19;;;;;;;5.32;1.80;;;;;;;14.63;57.97;101150.47;7387189;19;20015;-65
2022/04/19 08:02:47;;;;;;;9.50;2.00;;;;;;;14.77;57.83;101150.59;7387411;19;20019;-67
2022/04/19 08:05:15;;;;;;;12.02;2.75;;;;;;;14.87;58.01;101151.22;7385424;19;20010;-67
2022/04/19 08:07:42;;;;;;;8.02;1.95;;;;;;;14.91;57.82;101152.50;7387039;19;20332;-66
2022/04/19 08:10:09;;;;;;;5.30;2.20;;;;;;;15.02;57.63;101153.94;7389072;19;20041;-66
2022/04/19 08:12:36;;;;;;;7.75;2.75;;;;;;;15.16;56.58;101157.69;7387770;19;20470;-66
2022/04/19 08:15:03;;;;;;;7.75;2.33;;;;;;;15.00;56.55;101158.59;7386827;19;20435;-67
2022/04/19 08:17:34;;;;;;;7.55;2.15;;;;;;;14.88;56.92;101144.09;7386023;19;20019;-64
2022/04/19 08:20:02;;;;;;;6.53;2.22;;;;;;;14.84;57.74;101146.22;7383584;19;20033;-67
2022/04/19 08:22:30;;;;;;;8.23;2.70;;;;;;;14.83;57.39;101157.03;7387312;19;20034;-67
2022/04/19 08:24:57;;;;;;;7.20;2.25;;;;;;;14.83;58.11;101154.38;7390980;19;20316;-68
2022/04/19 08:27:24;;;;;;;4.75;1.88;;;;;;;14.82;57.46;101147.41;7385108;19;20030;-65
2022/04/19 08:29:51;;;;;;;5.00;2.13;;;;;;;14.80;57.61;101158.19;7388058;19;20015;-66
2022/04/19 08:32:18;;;;;;;8.70;1.83;;;;;;;14.79;57.68;101145.94;7383802;19;20501;-68
2022/04/19 08:34:46;;;;;;;6.70;2.08;;;;;;;14.83;57.93;101151.72;7386022;19;20021;-68
2022/04/19 08:37:13;;;;;;;4.80;1.95;;;;;;;14.85;57.49;101147.06;7387601;19;20029;-67
2022/04/19 08:39:40;;;;;;;7.38;2.20;;;;;;;14.89;57.37;101151.84;7389376;19;20028;-65
2022/04/19 08:42:07;;;;;;;11.40;2.28;;;;;;;14.86;57.35;101149.53;7387894;19;20027;-67
2022/04/19 08:44:35;;;;;;;5.22;1.85;;;;;;;14.87;57.34;101150.38;7386969;19;20452;-65
2022/04/19 08:47:06;;;;;;;8.60;2.15;;;;;;;14.92;57.51;101155.97;7385267;19;20006;-64
2022/04/19 08:49:42;;;;;;;7.25;2.47;;;;;;;14.90;57.31;101137.59;7385894;19;20017;-66
2022/04/19 08:52:10;;;;;;;6.63;2.63;;;;;;;14.84;57.69;101134.81;7386291;19;20018;-67
2022/04/19 08:57:29;;;;;;;16.35;2.45;;;;;;;14.86;57.98;101133.66;7385425;19;20500;-67
2022/04/19 08:59:58;;;;;;;8.00;2.83;;;;;;;14.91;58.52;101133.97;7386540;19;20098;-65
2022/04/19 09:02:27;;;;;;;15.02;2.67;;;;;;;15.02;56.91;101140.69;7383929;19;20018;-66
2022/04/19 09:05:10;;;;;;;8.88;2.33;;;;;;;15.12;56.17;101140.47;7386180;19;20093;-66
2022/04/19 09:07:37;;;;;;;8.90;2.42;;;;;;;15.18;56.46;101143.25;7384664;19;20010;-66
2022/04/19 09:10:06;;;;;;;6.97;2.55;;;;;;;15.21;56.66;101137.59;7385053;19;20449;-66
2022/04/19 09:12:33;;;;;;;7.30;2.78;;;;;;;15.23;56.90;101137.44;7387395;19;20015;-66
2022/04/19 09:15:06;;;;;;;8.90;3.20;;;;;;;15.24;56.10;101139.06;7385199;19;20153;-66
2022/04/19 09:17:40;;;;;;;7.25;2.50;;;;;;;15.29;55.79;101136.69;7385255;19;20356;-65
2022/04/19 09:20:15;;;;;;;7.45;2.40;;;;;;;15.30;56.07;101133.06;7387750;19;20828;-68
2022/04/19 09:22:43;;;;;;;7.13;2.38;;;;;;;15.34;55.60;101137.00;7385416;19;20504;-68
2022/04/19 09:25:29;;;;;;;9.20;2.72;;;;;;;15.43;56.22;101135.97;7383904;19;20126;-66
2022/04/19 09:28:03;;;;;;;10.07;2.67;;;;;;;15.48;55.94;101149.53;7383966;19;20006;-66
2022/04/19 09:30:34;;;;;;;10.52;2.80;;;;;;;15.53;55.50;101141.06;7384505;19;20120;-66
2022/04/19 09:33:19;;;;;;;8.30;2.63;;;;;;;15.47;55.40;101131.94;7386893;19;20083;-64
2022/04/19 09:35:53;;;;;;;8.88;2.58;;;;;;;15.46;55.57;101135.59;7384207;19;20364;-65
2022/04/19 09:38:37;;;;;;;12.02;2.80;;;;;;;15.48;55.46;101135.44;7386652;19;20022;-67
2022/04/19 09:41:06;;;;;;;11.07;2.65;;;;;;;15.48;55.83;101138.91;7384285;19;20459;-66
2022/04/19 09:44:10;;;;;;;5.15;2.30;;;;;;;15.52;55.30;101142.88;7381360;19;20014;-65
2022/04/19 09:46:38;;;;;;;11.85;2.70;;;;;;;15.56;54.49;101144.19;7385600;19;20010;-66
2022/04/19 09:49:06;;;;;;;6.93;2.17;;;;;;;15.55;53.93;101137.22;7390128;19;20015;-64
2022/04/19 09:51:34;;;;;;;6.85;1.90;;;;;;;15.58;54.13;101152.78;7395559;19;20362;-68
2022/04/19 09:54:02;;;;;;;8.15;2.67;;;;;;;15.63;54.70;101149.59;7393247;19;20014;-64
2022/04/19 09:56:34;;;;;;;7.10;2.15;;;;;;;15.73;53.72;101145.72;7391076;19;20040;-67
2022/04/19 09:59:17;;;;;;;6.90;2.28;;;;;;;15.69;53.23;101147.06;7392740;19;20456;-64
2022/04/19 10:10:03;;;;;;;12.13;2.50;;;;;;;15.76;54.17;101145.34;7392729;19;20067;-65
2022/04/19 10:12:31;;;;;;;9.18;2.78;;;;;;;15.86;54.13;101139.78;7389656;19;20467;-67
2022/04/19 10:14:59;;;;;;;13.02;2.63;;;;;;;16.00;53.68;101144.28;7392712;19;20019;-66
2022/04/19 10:17:28;;;;;;;5.65;2.70;;;;;;;16.09;53.93;101147.72;7389938;19;20344;-65
2022/04/19 10:19:58;;;;;;;8.15;2.50;;;;;;;16.10;54.48;101150.16;7390572;19;20014;-67
2022/04/19 10:22:27;;;;;;;5.70;2.55;;;;;;;16.16;54.07;101138.84;7394438;19;20039;-67
2022/04/19 10:24:55;;;;;;;5.20;2.17;;;;;;;16.22;52.45;101137.28;7384951;19;20123;-67
2022/04/19 10:27:30;;;;;;;5.28;2.78;;;;;;;16.25;52.99;101139.59;7388427;19;20015;-65
2022/04/19 10:30:01;;;;;;;5.05;2.30;;;;;;;16.22;53.26;101134.63;7392394;19;20011;-65
2022/04/19 10:32:33;;;;;;;9.85;2.70;;;;;;;16.26;52.80;101135.91;7390543;19;20019;-67
2022/04/19 10:35:03;;;;;;;9.15;2.47;;;;;;;16.37;52.78;101140.78;7387604;19;20017;-64
2022/04/19 10:37:31;;;;;;;9.82;3.03;;;;;;;16.45;52.60;101142.53;7394038;19;20066;-66
2022/04/19 10:39:58;;;;;;;6.03;2.28;;;;;;;16.56;52.25;101142.03;7392179;19;20078;-67
2022/04/19 10:42:32;;;;;;;7.90;2.65;;;;;;;16.62;51.89;101128.06;7390968;19;20361;-66
2022/04/19 10:45:14;;;;;;;4.93;2.38;;;;;;;16.73;51.31;101124.94;7386835;19;20368;-63
2022/04/19 10:47:53;;;;;;;4.20;1.98;;;;;;;16.85;51.70;101125.28;7389284;19;20090;-68
2022/04/19 10:50:34;;;;;;;7.70;2.67;;;;;;;16.99;51.94;101135.91;7391145;19;20042;-65
2022/04/19 10:53:09;;;;;;;8.23;1.88;;;;;;;17.06;50.20;101130.66;7393802;19;20455;-65
2022/04/19 10:55:41;;;;;;;7.05;2.00;;;;;;;17.16;48.80;101133.84;7387935;19;20080;-66
2022/04/19 10:58:23;;;;;;;8.20;2.45;;;;;;;17.25;48.50;101122.06;7387581;19;20011;-67
2022/04/19 11:00:57;;;;;;;6.50;2.13;;;;;;;17.27;48.29;101117.38;7389272;19;20010;-67
2022/04/19 11:03:33;;;;;;;5.13;2.05;;;;;;;17.23;48.29;101116.09;7388424;19;20022;-66
2022/04/19 11:06:04;;;;;;;5.97;1.60;;;;;;;17.29;48.79;101119.84;7388613;19;20376;-67
2022/04/19 11:08:38;;;;;;;5.78;1.55;;;;;;;17.40;46.37;101122.84;7391603;19;20090;-66
2022/04/19 11:11:08;;;;;;;4.65;1.63;;;;;;;17.42;46.97;101122.66;7389277;19;20010;-65
2022/04/19 11:13:40;;;;;;;3.08;1.00;;;;;;;17.51;46.77;101121.50;7393148;19;20059;-64
2022/04/19 11:16:08;;;;;;;4.90;1.42;;;;;;;17.57;46.43;101125.25;7388627;19;20006;-66
2022/04/19 11:18:41;;;;;;;2.72;0.90;;;;;;;17.62;45.57;101128.19;7389258;19;20007;-66
2022/04/19 11:21:46;;;;;;;9.43;1.08;;;;;;;17.68;45.75;101119.41;7389973;19;19994;-66
2022/04/19 11:24:52;;;;;;;3.70;1.10;;;;;;;17.76;45.14;101125.44;7384534;19;20179;-67
2022/04/19 11:27:19;;;;;;;5.47;1.10;;;;;;;17.85;45.05;101120.78;7386132;19;20006;-64
2022/04/19 11:29:47;;;;;;;4.93;1.40;;;;;;;17.97;45.42;101126.41;7388580;19;20013;-66
2022/04/19 11:32:23;;;;;;;3.97;2.05;;;;;;;17.78;45.47;101126.06;7388314;19;20014;-66
2022/04/19 11:35:01;;;;;;;7.25;1.70;;;;;;;17.77;46.28;101123.59;7388449;19;20007;-64
2022/04/19 11:37:32;;;;;;;4.28;1.65;;;;;;;17.61;47.23;101127.34;7388315;19;20039;-64
2022/04/19 11:48:30;;;;;;;8.98;1.80;;;;;;;17.75;49.35;101130.94;7387436;19;20539;-67
2022/04/19 11:51:20;;;;;;;6.05;1.90;;;;;;;17.81;49.21;101131.00;7390036;19;20020;-67
2022/04/19 11:53:50;;;;;;;5.07;1.75;;;;;;;17.92;49.20;101133.16;7387353;19;20014;-65
2022/04/19 11:56:17;;;;;;;6.10;2.42;;;;;;;18.04;48.54;101137.94;7385616;19;20082;-65
2022/04/19 11:58:50;;;;;;;8.13;2.65;;;;;;;18.06;49.74;101134.06;7385504;19;20122;-66
2022/04/19 12:01:18;;;;;;;10.00;2.45;;;;;;;18.00;49.09;101132.16;7391068;19;20039;-65
2022/04/19 12:03:52;;;;;;;8.20;2.10;;;;;;;18.00;48.23;101142.00;7385783;19;20018;-67
2022/04/19 12:06:21;;;;;;;5.95;2.42;;;;;;;17.91;48.80;101136.00;7389721;19;20046;-65
2022/04/19 12:08:50;;;;;;;8.38;2.42;;;;;;;17.82;48.52;101134.50;7390081;19;20011;-67
2022/04/19 12:11:18;;;;;;;6.90;2.30;;;;;;;17.70;49.23;101133.34;7384494;19;20121;-66
2022/04/19 12:13:47;;;;;;;8.77;3.10;;;;;;;17.65;50.80;101133.13;7386798;19;20643;-65
2022/04/19 12:16:31;;;;;;;6.80;2.97;;;;;;;17.58;50.97;101125.03;7388468;19;20018;-67